Santa Cruz de Tenerife, Spain
Current Conditions -  °F | °C
As of 11:00 PM on Monday 20 Oct 2014 (Local Time) from GCXO Reporting Station
Few Clouds Few Clouds  
Wind Chill: 61°   Ceiling: Unl
Heat Index: 61°   Visibility: 6mi
Dew Point: 59°   Wind: 1mph
Humidity: 94%   Direction: NA
Pressure: 30.06"   Gusts: NA
Location:  28.47°N, 16.25°W
Report Text: GCXO 202200Z VRB01KT 9999 FEW012 16/15 Q1018 NOSIG
Loading
Personal Weather Stations






























Interactive Weather Map
Tropical Storm Tracking
New forecast layout! Learn more

10-Day Weather Forecast

Advertisements
Track Severe Weather on mobile